sensor_id;sensor_type;location;lat;lon;timestamp;temperature;humidity
46652;DHT22;32377;52.182;5.398;2022-08-19T00:00:17;18.20;99.90
46652;DHT22;32377;52.182;5.398;2022-08-19T00:02:44;18.20;99.90
46652;DHT22;32377;52.182;5.398;2022-08-19T00:05:12;18.20;99.90
46652;DHT22;32377;52.182;5.398;2022-08-19T00:07:37;18.10;99.90
46652;DHT22;32377;52.182;5.398;2022-08-19T00:10:07;18.10;99.90
46652;DHT22;32377;52.182;5.398;2022-08-19T00:12:33;18.10;99.90
46652;DHT22;32377;52.182;5.398;2022-08-19T00:14:59;18.00;99.90
46652;DHT22;32377;52.182;5.398;2022-08-19T00:17:25;18.00;99.90
46652;DHT22;32377;52.182;5.398;2022-08-19T00:19:51;18.00;99.90
46652;DHT22;32377;52.182;5.398;2022-08-19T00:22:16;18.00;99.90
46652;DHT22;32377;52.182;5.398;2022-08-19T00:24:44;18.00;99.90
46652;DHT22;32377;52.182;5.398;2022-08-19T00:27:11;17.90;99.90
46652;DHT22;32377;52.182;5.398;2022-08-19T00:29:36;17.90;99.90
46652;DHT22;32377;52.182;5.398;2022-08-19T00:32:02;17.90;99.90
46652;DHT22;32377;52.182;5.398;2022-08-19T00:34:28;17.90;99.90
46652;DHT22;32377;52.182;5.398;2022-08-19T00:36:54;17.90;99.90
46652;DHT22;32377;52.182;5.398;2022-08-19T00:39:20;17.80;99.90
46652;DHT22;32377;52.182;5.398;2022-08-19T00:41:47;17.80;99.90
46652;DHT22;32377;52.182;5.398;2022-08-19T00:44:22;17.80;99.90
46652;DHT22;32377;52.182;5.398;2022-08-19T00:46:50;17.80;99.90
46652;DHT22;32377;52.182;5.398;2022-08-19T00:49:24;17.80;99.90
46652;DHT22;32377;52.182;5.398;2022-08-19T00:52:00;17.70;99.90
46652;DHT22;32377;52.182;5.398;2022-08-19T00:54:27;17.80;99.90
46652;DHT22;32377;52.182;5.398;2022-08-19T00:56:53;17.80;99.90
46652;DHT22;32377;52.182;5.398;2022-08-19T00:59:19;17.70;99.90
46652;DHT22;32377;52.182;5.398;2022-08-19T01:01:46;17.80;99.90
46652;DHT22;32377;52.182;5.398;2022-08-19T01:04:12;17.70;99.90
46652;DHT22;32377;52.182;5.398;2022-08-19T01:06:39;17.80;99.90
46652;DHT22;32377;52.182;5.398;2022-08-19T01:09:07;17.80;99.90
46652;DHT22;32377;52.182;5.398;2022-08-19T01:11:41;17.70;99.90
46652;DHT22;32377;52.182;5.398;2022-08-19T01:14:08;17.70;99.90
46652;DHT22;32377;52.182;5.398;2022-08-19T01:16:35;17.70;99.90
46652;DHT22;32377;52.182;5.398;2022-08-19T01:19:01;17.70;99.90
46652;DHT22;32377;52.182;5.398;2022-08-19T01:23:58;17.60;99.90
46652;DHT22;32377;52.182;5.398;2022-08-19T01:26:24;17.60;99.90
46652;DHT22;32377;52.182;5.398;2022-08-19T01:28:53;17.60;99.90
46652;DHT22;32377;52.182;5.398;2022-08-19T01:31:22;17.50;99.90
46652;DHT22;32377;52.182;5.398;2022-08-19T01:33:51;17.60;99.90
46652;DHT22;32377;52.182;5.398;2022-08-19T01:36:28;17.50;99.90
46652;DHT22;32377;52.182;5.398;2022-08-19T01:38:54;17.50;99.90
46652;DHT22;32377;52.182;5.398;2022-08-19T01:41:19;17.50;99.90
46652;DHT22;32377;52.182;5.398;2022-08-19T01:43:45;17.60;99.90
46652;DHT22;32377;52.182;5.398;2022-08-19T01:46:11;17.60;99.90
46652;DHT22;32377;52.182;5.398;2022-08-19T01:48:41;17.50;99.90
46652;DHT22;32377;52.182;5.398;2022-08-19T01:51:08;17.50;99.90
46652;DHT22;32377;52.182;5.398;2022-08-19T01:53:34;17.50;99.90
46652;DHT22;32377;52.182;5.398;2022-08-19T01:56:00;17.50;99.90
46652;DHT22;32377;52.182;5.398;2022-08-19T01:58:30;17.50;99.90
46652;DHT22;32377;52.182;5.398;2022-08-19T02:00:57;17.50;99.90
46652;DHT22;32377;52.182;5.398;2022-08-19T02:03:23;17.50;99.90
46652;DHT22;32377;52.182;5.398;2022-08-19T02:05:54;17.50;99.90
46652;DHT22;32377;52.182;5.398;2022-08-19T02:08:20;17.40;99.90
46652;DHT22;32377;52.182;5.398;2022-08-19T02:10:46;17.40;99.90
46652;DHT22;32377;52.182;5.398;2022-08-19T02:13:13;17.40;99.90
46652;DHT22;32377;52.182;5.398;2022-08-19T02:15:39;17.40;99.90
46652;DHT22;32377;52.182;5.398;2022-08-19T02:18:05;17.40;99.90
46652;DHT22;32377;52.182;5.398;2022-08-19T02:20:30;17.30;99.90
46652;DHT22;32377;52.182;5.398;2022-08-19T02:22:56;17.30;99.90
46652;DHT22;32377;52.182;5.398;2022-08-19T02:25:22;17.30;99.90
46652;DHT22;32377;52.182;5.398;2022-08-19T02:27:47;17.30;99.90
46652;DHT22;32377;52.182;5.398;2022-08-19T02:30:15;17.30;99.90
46652;DHT22;32377;52.182;5.398;2022-08-19T02:32:41;17.30;99.90
46652;DHT22;32377;52.182;5.398;2022-08-19T02:35:07;17.30;99.90
46652;DHT22;32377;52.182;5.398;2022-08-19T02:37:33;17.20;99.90
46652;DHT22;32377;52.182;5.398;2022-08-19T02:40:18;17.10;99.90
46652;DHT22;32377;52.182;5.398;2022-08-19T02:42:44;17.20;99.90
46652;DHT22;32377;52.182;5.398;2022-08-19T02:45:12;17.20;99.90
46652;DHT22;32377;52.182;5.398;2022-08-19T02:47:37;17.10;99.90
46652;DHT22;32377;52.182;5.398;2022-08-19T02:50:04;17.20;99.90
46652;DHT22;32377;52.182;5.398;2022-08-19T02:52:30;17.10;99.90
46652;DHT22;32377;52.182;5.398;2022-08-19T02:54:56;17.00;99.90
46652;DHT22;32377;52.182;5.398;2022-08-19T02:57:23;17.00;99.90
46652;DHT22;32377;52.182;5.398;2022-08-19T02:59:49;17.00;99.90
46652;DHT22;32377;52.182;5.398;2022-08-19T03:02:15;17.00;99.90
46652;DHT22;32377;52.182;5.398;2022-08-19T03:04:41;16.90;99.90
46652;DHT22;32377;52.182;5.398;2022-08-19T03:07:08;16.90;99.90
46652;DHT22;32377;52.182;5.398;2022-08-19T03:09:36;16.90;99.90
46652;DHT22;32377;52.182;5.398;2022-08-19T03:12:03;16.90;99.90
46652;DHT22;32377;52.182;5.398;2022-08-19T03:14:33;16.80;99.90
46652;DHT22;32377;52.182;5.398;2022-08-19T03:16:59;16.80;99.90
46652;DHT22;32377;52.182;5.398;2022-08-19T03:19:24;16.80;99.90
46652;DHT22;32377;52.182;5.398;2022-08-19T03:21:51;16.80;99.90
46652;DHT22;32377;52.182;5.398;2022-08-19T03:24:17;16.80;99.90
46652;DHT22;32377;52.182;5.398;2022-08-19T03:26:46;16.80;99.90
46652;DHT22;32377;52.182;5.398;2022-08-19T03:29:13;16.80;99.90
46652;DHT22;32377;52.182;5.398;2022-08-19T03:31:40;16.80;99.90
46652;DHT22;32377;52.182;5.398;2022-08-19T03:34:07;16.80;99.90
46652;DHT22;32377;52.182;5.398;2022-08-19T03:36:32;16.90;99.90
46652;DHT22;32377;52.182;5.398;2022-08-19T03:38:59;16.90;99.90
46652;DHT22;32377;52.182;5.398;2022-08-19T03:41:28;16.80;99.90
46652;DHT22;32377;52.182;5.398;2022-08-19T03:43:54;16.90;99.90
46652;DHT22;32377;52.182;5.398;2022-08-19T03:46:24;16.80;99.90
46652;DHT22;32377;52.182;5.398;2022-08-19T03:48:52;16.80;99.90
46652;DHT22;32377;52.182;5.398;2022-08-19T03:51:25;16.70;99.90
46652;DHT22;32377;52.182;5.398;2022-08-19T03:53:52;16.70;99.90
46652;DHT22;32377;52.182;5.398;2022-08-19T03:56:18;16.70;99.90
46652;DHT22;32377;52.182;5.398;2022-08-19T03:58:45;16.70;99.90
46652;DHT22;32377;52.182;5.398;2022-08-19T04:01:13;16.70;99.90
46652;DHT22;32377;52.182;5.398;2022-08-19T04:03:39;16.70;99.90
46652;DHT22;32377;52.182;5.398;2022-08-19T04:06:13;16.70;99.90
46652;DHT22;32377;52.182;5.398;2022-08-19T04:08:43;16.70;99.90
46652;DHT22;32377;52.182;5.398;2022-08-19T04:11:10;16.70;99.90
46652;DHT22;32377;52.182;5.398;2022-08-19T04:13:37;16.70;99.90
46652;DHT22;32377;52.182;5.398;2022-08-19T04:16:04;16.70;99.90
46652;DHT22;32377;52.182;5.398;2022-08-19T04:18:31;16.70;99.90
46652;DHT22;32377;52.182;5.398;2022-08-19T04:20:58;16.70;99.90
46652;DHT22;32377;52.182;5.398;2022-08-19T04:23:24;16.60;99.90
46652;DHT22;32377;52.182;5.398;2022-08-19T04:25:50;16.60;99.90
46652;DHT22;32377;52.182;5.398;2022-08-19T04:28:15;16.60;99.90
46652;DHT22;32377;52.182;5.398;2022-08-19T04:30:53;16.60;99.90
46652;DHT22;32377;52.182;5.398;2022-08-19T04:33:22;16.60;99.90
46652;DHT22;32377;52.182;5.398;2022-08-19T04:35:49;16.60;99.90
46652;DHT22;32377;52.182;5.398;2022-08-19T04:38:17;16.60;99.90
46652;DHT22;32377;52.182;5.398;2022-08-19T04:40:46;16.50;99.90
46652;DHT22;32377;52.182;5.398;2022-08-19T04:43:31;16.50;99.90
46652;DHT22;32377;52.182;5.398;2022-08-19T04:45:58;16.50;99.90
46652;DHT22;32377;52.182;5.398;2022-08-19T04:48:23;16.50;99.90
46652;DHT22;32377;52.182;5.398;2022-08-19T04:50:54;16.50;99.90
46652;DHT22;32377;52.182;5.398;2022-08-19T04:53:33;16.50;99.90
46652;DHT22;32377;52.182;5.398;2022-08-19T04:55:59;16.50;99.90
46652;DHT22;32377;52.182;5.398;2022-08-19T04:58:27;16.50;99.90
46652;DHT22;32377;52.182;5.398;2022-08-19T05:00:52;16.50;99.90
46652;DHT22;32377;52.182;5.398;2022-08-19T05:03:21;16.50;99.90
46652;DHT22;32377;52.182;5.398;2022-08-19T05:05:48;16.50;99.90
46652;DHT22;32377;52.182;5.398;2022-08-19T05:08:16;16.50;99.90
46652;DHT22;32377;52.182;5.398;2022-08-19T05:10:50;16.50;99.90
46652;DHT22;32377;52.182;5.398;2022-08-19T05:13:17;16.60;99.90
46652;DHT22;32377;52.182;5.398;2022-08-19T05:15:45;16.60;99.90
46652;DHT22;32377;52.182;5.398;2022-08-19T05:18:18;16.60;99.90
46652;DHT22;32377;52.182;5.398;2022-08-19T05:21:07;16.70;99.90
46652;DHT22;32377;52.182;5.398;2022-08-19T05:23:51;16.70;99.90
46652;DHT22;32377;52.182;5.398;2022-08-19T05:26:17;16.80;99.90
46652;DHT22;32377;52.182;5.398;2022-08-19T05:28:43;16.80;99.90
46652;DHT22;32377;52.182;5.398;2022-08-19T05:31:08;16.80;99.90
46652;DHT22;32377;52.182;5.398;2022-08-19T05:33:34;16.90;99.90
46652;DHT22;32377;52.182;5.398;2022-08-19T05:36:01;17.00;99.90
46652;DHT22;32377;52.182;5.398;2022-08-19T05:38:27;17.00;99.90
46652;DHT22;32377;52.182;5.398;2022-08-19T05:40:54;17.10;99.90
46652;DHT22;32377;52.182;5.398;2022-08-19T05:43:19;17.20;99.90
46652;DHT22;32377;52.182;5.398;2022-08-19T05:45:45;17.30;99.90
46652;DHT22;32377;52.182;5.398;2022-08-19T05:48:12;17.40;99.90
46652;DHT22;32377;52.182;5.398;2022-08-19T05:50:41;17.50;99.90
46652;DHT22;32377;52.182;5.398;2022-08-19T05:53:07;17.60;99.90
46652;DHT22;32377;52.182;5.398;2022-08-19T05:55:34;17.80;99.90
46652;DHT22;32377;52.182;5.398;2022-08-19T05:58:00;17.80;99.90
46652;DHT22;32377;52.182;5.398;2022-08-19T06:00:27;17.90;99.90
46652;DHT22;32377;52.182;5.398;2022-08-19T06:02:52;18.10;99.90
46652;DHT22;32377;52.182;5.398;2022-08-19T06:05:19;18.20;99.90
46652;DHT22;32377;52.182;5.398;2022-08-19T06:07:45;18.30;99.90
46652;DHT22;32377;52.182;5.398;2022-08-19T06:10:12;18.40;99.90
46652;DHT22;32377;52.182;5.398;2022-08-19T06:12:39;18.40;99.90
46652;DHT22;32377;52.182;5.398;2022-08-19T06:15:12;18.50;99.90
46652;DHT22;32377;52.182;5.398;2022-08-19T06:17:38;18.60;99.90
46652;DHT22;32377;52.182;5.398;2022-08-19T06:20:07;18.70;99.90
46652;DHT22;32377;52.182;5.398;2022-08-19T06:22:38;18.80;99.90
46652;DHT22;32377;52.182;5.398;2022-08-19T06:25:05;18.90;99.90
46652;DHT22;32377;52.182;5.398;2022-08-19T06:27:30;18.90;99.90
46652;DHT22;32377;52.182;5.398;2022-08-19T06:29:57;19.00;99.90
46652;DHT22;32377;52.182;5.398;2022-08-19T06:32:23;19.10;99.90
46652;DHT22;32377;52.182;5.398;2022-08-19T06:34:48;19.20;99.90
46652;DHT22;32377;52.182;5.398;2022-08-19T06:37:14;19.20;99.90
46652;DHT22;32377;52.182;5.398;2022-08-19T06:39:42;19.30;99.90
46652;DHT22;32377;52.182;5.398;2022-08-19T06:42:09;19.30;99.90
46652;DHT22;32377;52.182;5.398;2022-08-19T06:44:40;19.50;99.90
46652;DHT22;32377;52.182;5.398;2022-08-19T06:47:08;19.50;99.90
46652;DHT22;32377;52.182;5.398;2022-08-19T06:49:35;19.50;99.90
46652;DHT22;32377;52.182;5.398;2022-08-19T06:52:01;19.60;99.90
46652;DHT22;32377;52.182;5.398;2022-08-19T06:54:28;19.70;99.90
46652;DHT22;32377;52.182;5.398;2022-08-19T06:56:55;19.80;99.90
46652;DHT22;32377;52.182;5.398;2022-08-19T06:59:23;19.70;99.90
46652;DHT22;32377;52.182;5.398;2022-08-19T07:01:55;19.70;99.90
46652;DHT22;32377;52.182;5.398;2022-08-19T07:04:23;19.70;99.90
46652;DHT22;32377;52.182;5.398;2022-08-19T07:06:55;19.60;99.90
46652;DHT22;32377;52.182;5.398;2022-08-19T07:09:22;19.40;99.90
46652;DHT22;32377;52.182;5.398;2022-08-19T07:11:50;19.40;99.90
46652;DHT22;32377;52.182;5.398;2022-08-19T07:14:20;19.50;99.90
46652;DHT22;32377;52.182;5.398;2022-08-19T07:16:48;19.40;99.90
46652;DHT22;32377;52.182;5.398;2022-08-19T07:19:14;19.50;99.90
46652;DHT22;32377;52.182;5.398;2022-08-19T07:21:41;19.60;99.90
46652;DHT22;32377;52.182;5.398;2022-08-19T07:24:08;19.80;99.90
46652;DHT22;32377;52.182;5.398;2022-08-19T07:26:39;19.80;99.90
46652;DHT22;32377;52.182;5.398;2022-08-19T07:29:06;19.90;99.90
46652;DHT22;32377;52.182;5.398;2022-08-19T07:31:32;20.00;99.90
46652;DHT22;32377;52.182;5.398;2022-08-19T07:34:03;20.20;99.90
46652;DHT22;32377;52.182;5.398;2022-08-19T07:36:34;20.20;99.90
46652;DHT22;32377;52.182;5.398;2022-08-19T07:39:03;20.20;99.90
46652;DHT22;32377;52.182;5.398;2022-08-19T07:41:30;20.30;99.90
46652;DHT22;32377;52.182;5.398;2022-08-19T07:43:57;20.60;99.90
46652;DHT22;32377;52.182;5.398;2022-08-19T07:46:23;20.70;99.90
46652;DHT22;32377;52.182;5.398;2022-08-19T07:48:51;20.70;99.90
46652;DHT22;32377;52.182;5.398;2022-08-19T07:51:20;20.70;99.90
46652;DHT22;32377;52.182;5.398;2022-08-19T07:53:47;20.70;99.90
46652;DHT22;32377;52.182;5.398;2022-08-19T07:56:14;20.40;99.90
46652;DHT22;32377;52.182;5.398;2022-08-19T07:58:43;20.60;99.90
46652;DHT22;32377;52.182;5.398;2022-08-19T08:01:11;20.80;99.90
46652;DHT22;32377;52.182;5.398;2022-08-19T08:03:37;20.70;99.90
46652;DHT22;32377;52.182;5.398;2022-08-19T08:06:22;20.70;99.90
46652;DHT22;32377;52.182;5.398;2022-08-19T08:09:09;20.70;99.90
46652;DHT22;32377;52.182;5.398;2022-08-19T08:11:44;20.80;99.90
46652;DHT22;32377;52.182;5.398;2022-08-19T08:14:16;20.80;99.90
46652;DHT22;32377;52.182;5.398;2022-08-19T08:16:42;20.90;99.90
46652;DHT22;32377;52.182;5.398;2022-08-19T08:19:09;20.80;99.90
46652;DHT22;32377;52.182;5.398;2022-08-19T08:21:35;20.80;99.90
46652;DHT22;32377;52.182;5.398;2022-08-19T08:24:01;20.90;99.90
46652;DHT22;32377;52.182;5.398;2022-08-19T08:26:27;20.90;99.90
46652;DHT22;32377;52.182;5.398;2022-08-19T08:28:53;20.70;99.90
46652;DHT22;32377;52.182;5.398;2022-08-19T08:31:19;20.60;99.90
46652;DHT22;32377;52.182;5.398;2022-08-19T08:33:46;20.70;99.90
46652;DHT22;32377;52.182;5.398;2022-08-19T08:36:12;20.70;99.90
46652;DHT22;32377;52.182;5.398;2022-08-19T08:38:40;20.70;99.90
46652;DHT22;32377;52.182;5.398;2022-08-19T08:41:23;20.70;99.90
46652;DHT22;32377;52.182;5.398;2022-08-19T08:43:54;20.60;99.90
46652;DHT22;32377;52.182;5.398;2022-08-19T08:46:35;20.80;99.90
46652;DHT22;32377;52.182;5.398;2022-08-19T08:49:26;21.10;99.90
46652;DHT22;32377;52.182;5.398;2022-08-19T08:52:07;21.40;99.90
46652;DHT22;32377;52.182;5.398;2022-08-19T08:54:46;21.60;99.90
46652;DHT22;32377;52.182;5.398;2022-08-19T08:57:17;21.60;99.90
46652;DHT22;32377;52.182;5.398;2022-08-19T08:59:47;21.70;99.90
46652;DHT22;32377;52.182;5.398;2022-08-19T09:02:17;21.80;99.90
46652;DHT22;32377;52.182;5.398;2022-08-19T09:04:42;21.90;99.90
46652;DHT22;32377;52.182;5.398;2022-08-19T09:07:40;22.10;99.90
46652;DHT22;32377;52.182;5.398;2022-08-19T09:10:40;22.10;99.90
46652;DHT22;32377;52.182;5.398;2022-08-19T09:13:23;21.80;99.90
46652;DHT22;32377;52.182;5.398;2022-08-19T09:16:19;21.80;99.90
46652;DHT22;32377;52.182;5.398;2022-08-19T09:18:51;21.80;99.90
46652;DHT22;32377;52.182;5.398;2022-08-19T09:21:23;22.30;99.90
46652;DHT22;32377;52.182;5.398;2022-08-19T09:23:50;22.60;99.90
46652;DHT22;32377;52.182;5.398;2022-08-19T09:26:19;22.60;99.90
46652;DHT22;32377;52.182;5.398;2022-08-19T09:28:46;22.70;99.90
46652;DHT22;32377;52.182;5.398;2022-08-19T09:31:14;23.00;99.90
46652;DHT22;32377;52.182;5.398;2022-08-19T09:33:41;23.00;99.90
46652;DHT22;32377;52.182;5.398;2022-08-19T09:36:11;23.10;99.90
46652;DHT22;32377;52.182;5.398;2022-08-19T09:38:37;23.20;99.90
46652;DHT22;32377;52.182;5.398;2022-08-19T09:41:11;23.20;99.90
46652;DHT22;32377;52.182;5.398;2022-08-19T09:43:40;23.20;99.90
46652;DHT22;32377;52.182;5.398;2022-08-19T09:46:07;23.10;99.90
46652;DHT22;32377;52.182;5.398;2022-08-19T09:48:34;23.00;99.90
46652;DHT22;32377;52.182;5.398;2022-08-19T09:51:05;22.80;99.90
46652;DHT22;32377;52.182;5.398;2022-08-19T09:53:36;22.80;99.90
46652;DHT22;32377;52.182;5.398;2022-08-19T09:56:04;23.00;99.90
46652;DHT22;32377;52.182;5.398;2022-08-19T09:58:30;23.20;99.90
46652;DHT22;32377;52.182;5.398;2022-08-19T10:00:57;23.30;99.90
46652;DHT22;32377;52.182;5.398;2022-08-19T10:03:24;23.30;99.90
46652;DHT22;32377;52.182;5.398;2022-08-19T10:05:50;23.40;99.90
46652;DHT22;32377;52.182;5.398;2022-08-19T10:08:24;23.20;99.90
46652;DHT22;32377;52.182;5.398;2022-08-19T10:10:51;23.20;99.90
46652;DHT22;32377;52.182;5.398;2022-08-19T10:13:19;23.40;99.90
46652;DHT22;32377;52.182;5.398;2022-08-19T10:15:49;23.50;99.90
46652;DHT22;32377;52.182;5.398;2022-08-19T10:18:19;23.60;99.90
46652;DHT22;32377;52.182;5.398;2022-08-19T10:20:46;23.60;99.90
46652;DHT22;32377;52.182;5.398;2022-08-19T10:23:12;23.70;99.90
46652;DHT22;32377;52.182;5.398;2022-08-19T10:25:38;23.80;99.90
46652;DHT22;32377;52.182;5.398;2022-08-19T10:28:04;23.80;99.90
46652;DHT22;32377;52.182;5.398;2022-08-19T10:30:31;23.80;99.90
46652;DHT22;32377;52.182;5.398;2022-08-19T10:32:57;23.80;99.90
46652;DHT22;32377;52.182;5.398;2022-08-19T10:35:23;23.90;99.90
46652;DHT22;32377;52.182;5.398;2022-08-19T10:37:51;24.10;99.90
46652;DHT22;32377;52.182;5.398;2022-08-19T10:40:17;24.10;99.90
46652;DHT22;32377;52.182;5.398;2022-08-19T10:42:42;24.10;99.90
46652;DHT22;32377;52.182;5.398;2022-08-19T10:45:10;23.90;99.90
46652;DHT22;32377;52.182;5.398;2022-08-19T10:47:36;23.80;99.90
46652;DHT22;32377;52.182;5.398;2022-08-19T10:50:03;23.60;99.90
46652;DHT22;32377;52.182;5.398;2022-08-19T10:52:49;23.60;99.90
46652;DHT22;32377;52.182;5.398;2022-08-19T10:55:15;23.80;99.90
46652;DHT22;32377;52.182;5.398;2022-08-19T10:57:59;24.00;99.90
46652;DHT22;32377;52.182;5.398;2022-08-19T11:00:25;24.00;99.90
46652;DHT22;32377;52.182;5.398;2022-08-19T11:02:51;24.10;99.90
46652;DHT22;32377;52.182;5.398;2022-08-19T11:05:18;24.20;99.90
46652;DHT22;32377;52.182;5.398;2022-08-19T11:07:44;24.10;99.90
46652;DHT22;32377;52.182;5.398;2022-08-19T11:10:12;24.20;99.90
46652;DHT22;32377;52.182;5.398;2022-08-19T11:12:39;24.40;99.90
46652;DHT22;32377;52.182;5.398;2022-08-19T11:15:09;24.50;99.90
46652;DHT22;32377;52.182;5.398;2022-08-19T11:17:37;24.60;99.90
46652;DHT22;32377;52.182;5.398;2022-08-19T11:20:06;24.70;99.90
46652;DHT22;32377;52.182;5.398;2022-08-19T11:22:32;24.80;99.90
46652;DHT22;32377;52.182;5.398;2022-08-19T11:24:58;24.70;99.90
46652;DHT22;32377;52.182;5.398;2022-08-19T11:27:23;24.90;99.90
46652;DHT22;32377;52.182;5.398;2022-08-19T11:29:49;25.00;99.90
46652;DHT22;32377;52.182;5.398;2022-08-19T11:32:15;25.00;99.90
46652;DHT22;32377;52.182;5.398;2022-08-19T11:34:41;25.00;99.90
46652;DHT22;32377;52.182;5.398;2022-08-19T11:37:07;24.90;99.90
46652;DHT22;32377;52.182;5.398;2022-08-19T11:39:34;25.00;99.90
46652;DHT22;32377;52.182;5.398;2022-08-19T11:42:03;25.00;99.90
46652;DHT22;32377;52.182;5.398;2022-08-19T11:44:49;25.00;99.90
46652;DHT22;32377;52.182;5.398;2022-08-19T11:47:15;25.30;99.90
46652;DHT22;32377;52.182;5.398;2022-08-19T11:49:40;25.30;99.90
46652;DHT22;32377;52.182;5.398;2022-08-19T11:52:07;25.40;99.90
46652;DHT22;32377;52.182;5.398;2022-08-19T11:54:33;25.50;99.90
46652;DHT22;32377;52.182;5.398;2022-08-19T11:56:58;25.70;99.90
46652;DHT22;32377;52.182;5.398;2022-08-19T11:59:24;25.60;99.90
46652;DHT22;32377;52.182;5.398;2022-08-19T12:01:52;25.70;99.90
46652;DHT22;32377;52.182;5.398;2022-08-19T12:04:17;25.70;99.90
46652;DHT22;32377;52.182;5.398;2022-08-19T12:06:43;25.60;99.90
46652;DHT22;32377;52.182;5.398;2022-08-19T12:09:09;25.40;99.90
46652;DHT22;32377;52.182;5.398;2022-08-19T12:11:35;25.30;99.90
46652;DHT22;32377;52.182;5.398;2022-08-19T12:14:02;25.00;99.90
46652;DHT22;32377;52.182;5.398;2022-08-19T12:16:29;24.70;99.90
46652;DHT22;32377;52.182;5.398;2022-08-19T12:18:56;24.70;99.90
46652;DHT22;32377;52.182;5.398;2022-08-19T12:21:25;24.60;99.90
46652;DHT22;32377;52.182;5.398;2022-08-19T12:23:54;24.40;99.90
46652;DHT22;32377;52.182;5.398;2022-08-19T12:26:20;24.20;99.90
46652;DHT22;32377;52.182;5.398;2022-08-19T12:28:46;23.50;99.90
46652;DHT22;32377;52.182;5.398;2022-08-19T12:31:12;22.80;99.90
46652;DHT22;32377;52.182;5.398;2022-08-19T12:33:39;22.20;99.90
46652;DHT22;32377;52.182;5.398;2022-08-19T12:36:07;21.90;99.90
46652;DHT22;32377;52.182;5.398;2022-08-19T12:38:33;21.80;99.90
46652;DHT22;32377;52.182;5.398;2022-08-19T12:41:03;21.50;99.90
46652;DHT22;32377;52.182;5.398;2022-08-19T12:43:31;21.40;99.90
46652;DHT22;32377;52.182;5.398;2022-08-19T12:45:57;21.30;99.90
46652;DHT22;32377;52.182;5.398;2022-08-19T12:48:23;21.30;99.90
46652;DHT22;32377;52.182;5.398;2022-08-19T12:50:48;21.30;99.90
46652;DHT22;32377;52.182;5.398;2022-08-19T12:53:14;21.30;99.90
46652;DHT22;32377;52.182;5.398;2022-08-19T12:55:41;21.40;99.90
46652;DHT22;32377;52.182;5.398;2022-08-19T12:58:08;21.30;99.90
46652;DHT22;32377;52.182;5.398;2022-08-19T13:00:33;21.40;99.90
46652;DHT22;32377;52.182;5.398;2022-08-19T13:03:00;21.50;99.90
46652;DHT22;32377;52.182;5.398;2022-08-19T13:05:30;21.50;99.90
46652;DHT22;32377;52.182;5.398;2022-08-19T13:07:57;21.80;99.90
46652;DHT22;32377;52.182;5.398;2022-08-19T13:10:27;21.90;99.90
46652;DHT22;32377;52.182;5.398;2022-08-19T13:12:53;22.10;99.90
46652;DHT22;32377;52.182;5.398;2022-08-19T13:15:20;22.10;99.90
46652;DHT22;32377;52.182;5.398;2022-08-19T13:17:48;22.20;99.90
46652;DHT22;32377;52.182;5.398;2022-08-19T13:20:15;22.30;99.90
46652;DHT22;32377;52.182;5.398;2022-08-19T13:22:41;22.30;99.90
46652;DHT22;32377;52.182;5.398;2022-08-19T13:25:08;22.20;99.90
46652;DHT22;32377;52.182;5.398;2022-08-19T13:27:34;22.30;99.90
46652;DHT22;32377;52.182;5.398;2022-08-19T13:30:01;22.50;99.90
46652;DHT22;32377;52.182;5.398;2022-08-19T13:32:46;22.50;99.90
46652;DHT22;32377;52.182;5.398;2022-08-19T13:35:30;22.70;99.90
46652;DHT22;32377;52.182;5.398;2022-08-19T13:37:56;22.70;99.90
46652;DHT22;32377;52.182;5.398;2022-08-19T13:40:23;22.80;99.90
46652;DHT22;32377;52.182;5.398;2022-08-19T13:42:54;22.80;99.90
46652;DHT22;32377;52.182;5.398;2022-08-19T13:45:23;22.70;99.90
46652;DHT22;32377;52.182;5.398;2022-08-19T13:47:51;22.70;99.90
46652;DHT22;32377;52.182;5.398;2022-08-19T13:50:19;22.70;99.90
46652;DHT22;32377;52.182;5.398;2022-08-19T13:52:46;22.80;99.90
46652;DHT22;32377;52.182;5.398;2022-08-19T13:55:13;22.80;99.90
46652;DHT22;32377;52.182;5.398;2022-08-19T13:57:39;22.90;99.90
46652;DHT22;32377;52.182;5.398;2022-08-19T14:00:17;22.90;99.90
46652;DHT22;32377;52.182;5.398;2022-08-19T14:02:47;22.90;99.90
46652;DHT22;32377;52.182;5.398;2022-08-19T14:05:15;22.90;99.90
46652;DHT22;32377;52.182;5.398;2022-08-19T14:07:41;22.80;99.90
46652;DHT22;32377;52.182;5.398;2022-08-19T14:10:09;22.80;99.90
46652;DHT22;32377;52.182;5.398;2022-08-19T14:12:36;22.90;99.90
46652;DHT22;32377;52.182;5.398;2022-08-19T14:15:04;22.90;99.90
46652;DHT22;32377;52.182;5.398;2022-08-19T14:17:30;22.90;99.90
46652;DHT22;32377;52.182;5.398;2022-08-19T14:20:01;23.00;99.90
46652;DHT22;32377;52.182;5.398;2022-08-19T14:22:31;23.10;99.90
46652;DHT22;32377;52.182;5.398;2022-08-19T14:24:57;23.10;99.90
46652;DHT22;32377;52.182;5.398;2022-08-19T14:27:23;23.40;99.90
46652;DHT22;32377;52.182;5.398;2022-08-19T14:29:51;23.60;99.90
46652;DHT22;32377;52.182;5.398;2022-08-19T14:32:16;23.50;99.90
46652;DHT22;32377;52.182;5.398;2022-08-19T14:34:42;23.70;99.90
46652;DHT22;32377;52.182;5.398;2022-08-19T14:37:09;23.80;99.90
46652;DHT22;32377;52.182;5.398;2022-08-19T14:39:35;23.80;99.90
46652;DHT22;32377;52.182;5.398;2022-08-19T14:42:00;24.00;99.90
46652;DHT22;32377;52.182;5.398;2022-08-19T14:44:26;24.00;99.90
46652;DHT22;32377;52.182;5.398;2022-08-19T14:46:52;23.90;99.90
46652;DHT22;32377;52.182;5.398;2022-08-19T14:49:18;23.60;99.90
46652;DHT22;32377;52.182;5.398;2022-08-19T14:51:44;23.50;99.90
46652;DHT22;32377;52.182;5.398;2022-08-19T14:54:12;23.50;99.90
46652;DHT22;32377;52.182;5.398;2022-08-19T14:56:40;23.50;99.90
46652;DHT22;32377;52.182;5.398;2022-08-19T14:59:06;23.30;99.90
46652;DHT22;32377;52.182;5.398;2022-08-19T15:01:31;23.30;99.90
46652;DHT22;32377;52.182;5.398;2022-08-19T15:03:57;23.30;99.90
46652;DHT22;32377;52.182;5.398;2022-08-19T15:06:24;23.30;99.90
46652;DHT22;32377;52.182;5.398;2022-08-19T15:08:50;23.40;99.90
46652;DHT22;32377;52.182;5.398;2022-08-19T15:11:18;23.40;99.90
46652;DHT22;32377;52.182;5.398;2022-08-19T15:13:46;23.40;99.90
46652;DHT22;32377;52.182;5.398;2022-08-19T15:16:13;23.50;99.90
46652;DHT22;32377;52.182;5.398;2022-08-19T15:18:43;23.70;99.90
46652;DHT22;32377;52.182;5.398;2022-08-19T15:21:11;23.70;99.90
46652;DHT22;32377;52.182;5.398;2022-08-19T15:23:46;23.80;99.90
46652;DHT22;32377;52.182;5.398;2022-08-19T15:26:12;24.00;99.90
46652;DHT22;32377;52.182;5.398;2022-08-19T15:28:38;23.90;99.90
46652;DHT22;32377;52.182;5.398;2022-08-19T15:31:04;24.10;99.90
46652;DHT22;32377;52.182;5.398;2022-08-19T15:33:34;24.10;99.90
46652;DHT22;32377;52.182;5.398;2022-08-19T15:36:04;24.20;99.90
46652;DHT22;32377;52.182;5.398;2022-08-19T15:38:31;24.40;99.90